Harveys Lake, Pennsylvania
Current Conditions -  °F | °C
As of 1:54 PM on Tuesday 21 Oct 2014 (Local Time) from KAVP Reporting Station
Overcast Overcast  
Wind Chill: 59°   Ceiling: 7000
Heat Index: 59°   Visibility: 10mi
Dew Point: 47°   Wind: 5mph
Humidity: 64%   Direction: 260°W
Pressure: 29.83"   Gusts: NA
Location:  41.38°N, 76.02°W
Report Text: KAVP 211754Z 26004KT 10SM OVC070 15/08 A2983 RMK AO2 SLP100 T01500083 10156 20106 58010
Loading
Personal Weather Stations






























Interactive Weather Map
Tropical Storm Tracking
New forecast layout! Learn more

10-Day Weather Forecast

Advertisements
Track Severe Weather on mobile